Time;durP1;ratioP1;P1;durP2;ratioP2;P2;SDS_P1;SDS_P2;PMS_P1;PMS_P2;Temp;Humidity;BMP_temperature;BMP_pressure;BME280_temperature;BME280_humidity;BME280_pressure;Samples;Min_cycle;Max_cycle;Signal;HPM_P1;HPM_P2
2022/05/11 00:01:38;;;;;;;5.78;3.25;;;;;;;;;;5100949;28;20383;-62
2022/05/11 00:04:07;;;;;;;6.63;3.15;;;;;;;;;;5088381;28;20040;-63
2022/05/11 00:06:34;;;;;;;8.13;3.38;;;;;;;;;;5097808;28;20043;-61
2022/05/11 00:09:02;;;;;;;6.95;3.75;;;;;;;;;;5101960;28;20024;-61
2022/05/11 00:11:28;;;;;;;5.90;3.63;;;;;;;;;;5094295;28;20086;-61
2022/05/11 00:13:55;;;;;;;6.95;3.28;;;;;;;;;;5108210;28;20020;-63
2022/05/11 00:16:21;;;;;;;7.97;3.85;;;;;;;;;;5094318;28;20059;-63
2022/05/11 00:18:47;;;;;;;6.22;3.47;;;;;;;;;;5103353;28;20008;-63
2022/05/11 00:21:13;;;;;;;7.38;4.05;;;;;;;;;;5082953;28;20199;-63
2022/05/11 00:23:40;;;;;;;6.30;3.80;;;;;;;;;;5099327;28;20095;-63
2022/05/11 00:26:06;;;;;;;6.15;3.85;;;;;;;;;;5091819;28;20020;-61
2022/05/11 00:28:32;;;;;;;7.72;4.10;;;;;;;;;;5103337;28;20599;-63
2022/05/11 00:30:58;;;;;;;6.43;3.63;;;;;;;;;;5106413;28;20475;-63
2022/05/11 00:33:24;;;;;;;8.35;3.75;;;;;;;;;;5108356;28;20034;-62
2022/05/11 00:35:51;;;;;;;6.72;3.88;;;;;;;;;;5103277;28;20471;-63
2022/05/11 00:38:18;;;;;;;6.10;3.95;;;;;;;;;;5087285;28;20028;-62
2022/05/11 00:40:46;;;;;;;6.00;3.55;;;;;;;;;;5097836;28;20023;-63
2022/05/11 00:43:12;;;;;;;11.45;4.18;;;;;;;;;;5097258;28;20094;-63
2022/05/11 00:45:42;;;;;;;8.32;4.53;;;;;;;;;;5107464;28;20034;-63
2022/05/11 00:50:56;;;;;;;6.15;4.28;;;;;;;;;;5103962;28;20038;-64
2022/05/11 00:53:23;;;;;;;7.55;4.43;;;;;;;;;;5099393;28;20036;-63
2022/05/11 00:55:51;;;;;;;6.82;3.92;;;;;;;;;;5082935;28;20021;-62
2022/05/11 00:58:21;;;;;;;8.25;4.00;;;;;;;;;;5096958;27;20024;-63
2022/05/11 01:00:47;;;;;;;9.05;4.30;;;;;;;;;;5099828;28;20110;-62
2022/05/11 01:03:15;;;;;;;5.85;4.07;;;;;;;;;;5103801;28;20359;-63
2022/05/11 01:05:43;;;;;;;10.77;4.07;;;;;;;;;;5093254;28;20483;-63
2022/05/11 01:08:09;;;;;;;5.85;3.63;;;;;;;;;;5107359;28;20028;-62
2022/05/11 01:10:35;;;;;;;8.05;3.92;;;;;;;;;;5089831;28;20700;-63
2022/05/11 01:13:05;;;;;;;6.57;4.13;;;;;;;;;;5095355;28;20038;-62
2022/05/11 01:15:32;;;;;;;7.30;4.18;;;;;;;;;;5100103;28;20448;-63
2022/05/11 01:17:59;;;;;;;6.75;3.97;;;;;;;;;;5095931;28;20063;-63
2022/05/11 01:20:25;;;;;;;7.95;4.10;;;;;;;;;;5097530;28;20031;-63
2022/05/11 01:22:58;;;;;;;9.88;4.20;;;;;;;;;;5100694;28;20026;-62
2022/05/11 01:25:24;;;;;;;5.85;4.10;;;;;;;;;;5088860;28;20035;-62
2022/05/11 01:27:50;;;;;;;4.85;3.60;;;;;;;;;;5099067;28;20067;-61
2022/05/11 01:30:19;;;;;;;7.68;4.40;;;;;;;;;;5105000;28;20119;-62
2022/05/11 01:32:46;;;;;;;7.68;3.92;;;;;;;;;;5099859;28;20441;-63
2022/05/11 01:35:31;;;;;;;6.22;3.78;;;;;;;;;;5091533;28;20474;-63
2022/05/11 01:38:03;;;;;;;7.32;4.03;;;;;;;;;;5103759;28;20062;-63
2022/05/11 01:40:29;;;;;;;6.82;4.30;;;;;;;;;;5106762;28;20039;-63
2022/05/11 01:42:55;;;;;;;8.45;4.25;;;;;;;;;;5093563;28;20024;-63
2022/05/11 01:45:21;;;;;;;8.05;4.47;;;;;;;;;;5104394;28;20406;-63
2022/05/11 01:47:47;;;;;;;8.90;3.95;;;;;;;;;;5103119;28;20114;-63
2022/05/11 01:50:13;;;;;;;7.25;4.03;;;;;;;;;;5103999;28;20268;-63
2022/05/11 01:52:39;;;;;;;6.38;4.10;;;;;;;;;;5107460;28;20024;-63
2022/05/11 01:55:05;;;;;;;6.22;3.88;;;;;;;;;;5105694;28;20026;-63
2022/05/11 01:57:31;;;;;;;5.75;4.05;;;;;;;;;;5089633;28;20035;-63
2022/05/11 01:59:57;;;;;;;6.65;4.13;;;;;;;;;;5099476;28;20076;-63
2022/05/11 02:02:23;;;;;;;7.00;4.40;;;;;;;;;;5097790;28;20039;-61
2022/05/11 02:07:49;;;;;;;7.25;4.05;;;;;;;;;;5097665;28;20041;-63
2022/05/11 02:10:15;;;;;;;4.63;3.88;;;;;;;;;;5104421;28;20076;-63
2022/05/11 02:12:41;;;;;;;9.45;4.60;;;;;;;;;;5091639;28;20023;-63
2022/05/11 02:15:08;;;;;;;6.70;4.40;;;;;;;;;;5105143;28;20020;-61
2022/05/11 02:17:34;;;;;;;6.57;4.00;;;;;;;;;;5101101;28;20027;-62
2022/05/11 02:20:00;;;;;;;6.45;4.05;;;;;;;;;;5098574;28;20411;-63
2022/05/11 02:22:27;;;;;;;4.68;3.88;;;;;;;;;;5106355;28;20030;-63
2022/05/11 02:24:53;;;;;;;5.78;4.18;;;;;;;;;;5102230;28;20034;-61
2022/05/11 02:27:19;;;;;;;6.50;4.28;;;;;;;;;;5080274;28;20039;-63
2022/05/11 02:29:45;;;;;;;6.28;4.22;;;;;;;;;;5097364;28;20026;-62
2022/05/11 02:32:10;;;;;;;8.63;4.28;;;;;;;;;;5105133;28;20039;-64
2022/05/11 02:37:21;;;;;;;7.63;4.20;;;;;;;;;;5101930;28;20034;-62
2022/05/11 02:39:48;;;;;;;7.60;4.57;;;;;;;;;;5100180;28;20020;-63
2022/05/11 02:42:14;;;;;;;6.53;4.65;;;;;;;;;;5090166;28;20047;-63
2022/05/11 02:44:40;;;;;;;5.53;4.07;;;;;;;;;;5101770;28;20444;-63
2022/05/11 02:47:06;;;;;;;6.28;3.88;;;;;;;;;;5094885;28;20031;-64
2022/05/11 02:49:32;;;;;;;7.57;4.47;;;;;;;;;;5102524;28;20047;-63
2022/05/11 02:51:58;;;;;;;7.50;4.22;;;;;;;;;;5105924;28;20483;-63
2022/05/11 02:54:25;;;;;;;6.78;4.00;;;;;;;;;;5106285;28;20024;-63
2022/05/11 02:56:51;;;;;;;6.30;3.85;;;;;;;;;;5105569;28;20195;-64
2022/05/11 02:59:17;;;;;;;8.90;4.47;;;;;;;;;;5096243;28;20020;-63
2022/05/11 03:01:43;;;;;;;9.63;4.10;;;;;;;;;;5082692;28;20034;-63
2022/05/11 03:04:09;;;;;;;6.60;4.10;;;;;;;;;;5087623;28;20024;-62
2022/05/11 03:06:35;;;;;;;4.60;3.83;;;;;;;;;;5090090;28;20557;-63
2022/05/11 03:09:01;;;;;;;6.30;4.00;;;;;;;;;;5100418;28;20410;-63
2022/05/11 03:11:27;;;;;;;11.85;4.03;;;;;;;;;;5092238;28;20031;-62
2022/05/11 03:13:53;;;;;;;6.15;3.90;;;;;;;;;;5095489;28;20024;-63
2022/05/11 03:16:19;;;;;;;8.63;4.50;;;;;;;;;;5094180;28;20047;-63
2022/05/11 03:18:45;;;;;;;9.98;4.07;;;;;;;;;;5086639;28;20019;-62
2022/05/11 03:21:11;;;;;;;6.75;4.22;;;;;;;;;;5092011;28;20016;-62
2022/05/11 03:23:37;;;;;;;5.65;3.95;;;;;;;;;;5100075;28;20020;-62
2022/05/11 03:26:03;;;;;;;6.68;4.47;;;;;;;;;;5095947;28;20034;-63
2022/05/11 03:28:30;;;;;;;8.80;4.70;;;;;;;;;;5102645;28;20027;-63
2022/05/11 03:30:56;;;;;;;7.60;4.68;;;;;;;;;;5088471;28;20027;-63
2022/05/11 03:36:07;;;;;;;8.63;4.60;;;;;;;;;;5096194;28;20038;-63
2022/05/11 03:38:33;;;;;;;7.95;4.53;;;;;;;;;;5098860;28;20024;-63
2022/05/11 03:40:59;;;;;;;8.88;4.80;;;;;;;;;;5098791;28;20030;-63
2022/05/11 03:43:25;;;;;;;10.65;4.28;;;;;;;;;;5095398;28;21087;-63
2022/05/11 03:45:51;;;;;;;6.57;4.50;;;;;;;;;;5106172;28;20028;-63
2022/05/11 03:48:17;;;;;;;8.88;4.13;;;;;;;;;;5108226;28;20498;-63
2022/05/11 03:50:43;;;;;;;7.57;4.50;;;;;;;;;;5109143;28;20070;-63
2022/05/11 03:53:09;;;;;;;12.10;4.97;;;;;;;;;;5109237;28;20097;-63
2022/05/11 03:55:35;;;;;;;12.77;4.72;;;;;;;;;;5097889;28;20046;-63
2022/05/11 03:58:01;;;;;;;9.07;4.97;;;;;;;;;;5096811;28;20490;-63
2022/05/11 04:00:27;;;;;;;12.30;5.07;;;;;;;;;;5098226;28;20028;-63
2022/05/11 04:02:54;;;;;;;9.20;5.05;;;;;;;;;;5107077;28;20499;-63
2022/05/11 04:05:21;;;;;;;8.30;4.72;;;;;;;;;;5090008;28;20024;-63
2022/05/11 04:07:47;;;;;;;8.98;4.82;;;;;;;;;;5104216;28;20107;-64
2022/05/11 04:10:14;;;;;;;11.30;5.72;;;;;;;;;;5106830;28;20027;-63
2022/05/11 04:12:40;;;;;;;9.70;5.30;;;;;;;;;;5094384;28;20486;-61
2022/05/11 04:15:06;;;;;;;12.52;5.47;;;;;;;;;;5108258;28;20058;-62
2022/05/11 04:17:33;;;;;;;8.00;5.28;;;;;;;;;;5100394;28;20027;-61
2022/05/11 04:19:58;;;;;;;10.25;5.50;;;;;;;;;;5098710;28;20032;-63
2022/05/11 04:22:25;;;;;;;9.30;5.65;;;;;;;;;;5108653;28;20080;-63
2022/05/11 04:24:51;;;;;;;11.75;5.50;;;;;;;;;;5108944;28;20379;-62
2022/05/11 04:27:17;;;;;;;12.40;5.68;;;;;;;;;;5099392;28;20031;-62
2022/05/11 04:29:42;;;;;;;11.00;6.10;;;;;;;;;;5103425;28;20047;-63
2022/05/11 04:32:10;;;;;;;8.27;5.47;;;;;;;;;;5106889;28;20089;-63
2022/05/11 04:34:39;;;;;;;9.00;5.55;;;;;;;;;;5098989;28;20035;-64
2022/05/11 04:37:05;;;;;;;9.00;5.22;;;;;;;;;;5103048;28;20031;-63
2022/05/11 04:39:31;;;;;;;10.75;5.95;;;;;;;;;;5083246;28;20063;-63
2022/05/11 04:41:57;;;;;;;10.18;5.45;;;;;;;;;;5087275;28;20036;-63
2022/05/11 04:44:23;;;;;;;10.32;5.85;;;;;;;;;;5092870;28;20498;-61
2022/05/11 04:46:49;;;;;;;9.68;5.43;;;;;;;;;;5097381;28;20047;-63
2022/05/11 04:49:21;;;;;;;9.82;6.00;;;;;;;;;;5098444;28;20019;-63
2022/05/11 04:51:51;;;;;;;15.55;7.10;;;;;;;;;;5089221;28;20039;-63
2022/05/11 04:54:17;;;;;;;10.15;5.70;;;;;;;;;;5090465;28;20730;-63
2022/05/11 04:56:43;;;;;;;11.23;5.00;;;;;;;;;;5099009;28;20106;-63
2022/05/11 04:59:10;;;;;;;9.40;5.18;;;;;;;;;;5101763;28;20416;-63
2022/05/11 05:01:36;;;;;;;8.98;5.25;;;;;;;;;;5093787;28;20023;-61
2022/05/11 05:04:02;;;;;;;11.23;5.18;;;;;;;;;;5097430;28;20028;-63
2022/05/11 05:06:32;;;;;;;8.23;5.15;;;;;;;;;;5101061;28;20488;-63
2022/05/11 05:08:58;;;;;;;9.40;5.55;;;;;;;;;;5108232;28;20107;-63
2022/05/11 05:11:24;;;;;;;8.90;5.68;;;;;;;;;;5091374;28;20382;-63
2022/05/11 05:13:50;;;;;;;12.48;5.90;;;;;;;;;;5084312;28;20023;-62
2022/05/11 05:16:16;;;;;;;16.38;6.38;;;;;;;;;;5088180;28;20047;-62
2022/05/11 05:18:42;;;;;;;13.15;5.78;;;;;;;;;;5100263;28;20023;-62
2022/05/11 05:21:08;;;;;;;9.75;6.05;;;;;;;;;;5099010;28;20051;-62
2022/05/11 05:23:35;;;;;;;13.52;6.38;;;;;;;;;;5084588;28;20451;-62
2022/05/11 05:26:02;;;;;;;12.07;7.05;;;;;;;;;;5077655;28;20032;-63
2022/05/11 05:31:16;;;;;;;15.48;6.30;;;;;;;;;;5080338;28;20038;-62
2022/05/11 05:33:42;;;;;;;10.68;6.13;;;;;;;;;;5087128;28;20477;-63
2022/05/11 05:36:09;;;;;;;14.07;6.50;;;;;;;;;;5091531;28;20107;-62
2022/05/11 05:38:38;;;;;;;13.00;6.15;;;;;;;;;;5103894;28;20042;-63
2022/05/11 05:41:04;;;;;;;13.43;6.53;;;;;;;;;;5099260;28;20027;-63
2022/05/11 05:43:30;;;;;;;11.10;5.70;;;;;;;;;;5088893;28;20100;-63
2022/05/11 05:45:56;;;;;;;11.85;6.00;;;;;;;;;;5094693;28;20118;-63
2022/05/11 05:48:22;;;;;;;11.27;6.30;;;;;;;;;;5091336;28;20052;-63
2022/05/11 05:50:48;;;;;;;13.00;6.55;;;;;;;;;;5093199;28;20047;-63
2022/05/11 05:53:19;;;;;;;13.38;6.53;;;;;;;;;;5083041;28;20058;-62
2022/05/11 05:55:45;;;;;;;14.82;6.95;;;;;;;;;;5085426;28;20020;-63
2022/05/11 05:58:12;;;;;;;13.63;7.55;;;;;;;;;;5076771;28;20718;-63
2022/05/11 06:00:38;;;;;;;10.90;7.32;;;;;;;;;;5096465;28;20111;-63
2022/05/11 06:03:04;;;;;;;14.07;7.07;;;;;;;;;;5094846;28;20111;-63
2022/05/11 06:05:30;;;;;;;15.70;6.85;;;;;;;;;;5084194;28;20482;-63
2022/05/11 06:07:56;;;;;;;19.98;7.10;;;;;;;;;;5081518;28;20038;-63
2022/05/11 06:10:24;;;;;;;16.05;7.65;;;;;;;;;;5080345;28;20039;-63
2022/05/11 06:12:50;;;;;;;14.85;7.57;;;;;;;;;;5079537;28;20067;-63
2022/05/11 06:15:16;;;;;;;15.00;7.65;;;;;;;;;;5083677;28;20091;-63
2022/05/11 06:17:42;;;;;;;19.23;8.13;;;;;;;;;;5093680;28;20030;-63
2022/05/11 06:20:09;;;;;;;18.52;7.93;;;;;;;;;;5084653;28;20028;-63
2022/05/11 06:22:35;;;;;;;19.80;7.93;;;;;;;;;;5091568;28;20083;-63
2022/05/11 06:25:02;;;;;;;14.02;7.53;;;;;;;;;;5085329;28;20042;-63
2022/05/11 06:27:29;;;;;;;14.20;7.68;;;;;;;;;;5090755;28;20097;-63
2022/05/11 06:29:57;;;;;;;12.38;6.82;;;;;;;;;;5090934;28;20024;-63
2022/05/11 06:32:23;;;;;;;13.27;6.78;;;;;;;;;;5095108;28;20043;-63
2022/05/11 06:34:51;;;;;;;14.50;5.88;;;;;;;;;;5086568;28;20020;-63
2022/05/11 06:37:17;;;;;;;10.27;5.90;;;;;;;;;;5103577;28;20495;-63
2022/05/11 06:39:43;;;;;;;10.23;6.35;;;;;;;;;;5094611;28;20024;-63
2022/05/11 06:42:09;;;;;;;11.88;5.90;;;;;;;;;;5090534;28;20016;-63
2022/05/11 06:44:36;;;;;;;9.27;5.68;;;;;;;;;;5089952;28;20028;-63
2022/05/11 06:47:02;;;;;;;8.27;5.40;;;;;;;;;;5101592;28;20033;-63
2022/05/11 06:49:28;;;;;;;7.63;5.05;;;;;;;;;;5096759;28;20110;-63
2022/05/11 06:51:54;;;;;;;11.95;4.72;;;;;;;;;;5099118;28;20128;-63
2022/05/11 06:59:49;;;;;;;6.68;3.53;;;;;;;;;;5097358;28;20506;-63
2022/05/11 07:02:15;;;;;;;11.75;4.22;;;;;;;;;;5085893;28;20216;-63
2022/05/11 07:04:41;;;;;;;7.72;4.05;;;;;;;;;;5088069;28;20036;-63
2022/05/11 07:07:08;;;;;;;7.15;3.97;;;;;;;;;;5086009;28;20498;-63
2022/05/11 07:09:34;;;;;;;6.30;3.33;;;;;;;;;;5093666;28;20090;-63
2022/05/11 07:14:47;;;;;;;13.27;3.30;;;;;;;;;;5101373;28;20069;-63
2022/05/11 07:17:13;;;;;;;6.40;3.03;;;;;;;;;;5086998;28;20113;-63
2022/05/11 07:19:43;;;;;;;13.00;3.08;;;;;;;;;;5094210;28;20031;-63
2022/05/11 07:22:09;;;;;;;5.68;2.80;;;;;;;;;;5095050;28;20114;-63
2022/05/11 07:24:35;;;;;;;9.07;3.58;;;;;;;;;;5106826;28;20062;-63
2022/05/11 07:27:01;;;;;;;5.13;3.10;;;;;;;;;;5089681;28;20550;-63
2022/05/11 07:29:27;;;;;;;3.97;2.55;;;;;;;;;;5102435;28;20012;-63
2022/05/11 07:31:53;;;;;;;6.18;2.72;;;;;;;;;;5093966;28;20046;-63
2022/05/11 07:34:19;;;;;;;6.50;2.78;;;;;;;;;;5094732;28;20024;-63
2022/05/11 07:36:45;;;;;;;5.82;2.35;;;;;;;;;;5098097;28;20047;-63
2022/05/11 07:39:11;;;;;;;6.78;2.35;;;;;;;;;;5095886;28;20281;-64
2022/05/11 07:41:37;;;;;;;5.32;2.60;;;;;;;;;;5094810;28;20065;-62
2022/05/11 07:44:03;;;;;;;9.50;2.60;;;;;;;;;;5097926;28;20032;-63
2022/05/11 07:46:34;;;;;;;5.75;2.90;;;;;;;;;;5104944;28;20510;-63
2022/05/11 07:49:00;;;;;;;6.30;2.83;;;;;;;;;;5099469;28;20130;-63
2022/05/11 07:51:26;;;;;;;8.10;2.40;;;;;;;;;;5095154;28;20016;-63
2022/05/11 07:53:52;;;;;;;6.70;2.50;;;;;;;;;;5092837;28;20073;-63
2022/05/11 08:01:47;;;;;;;4.75;2.30;;;;;;;;;;5080621;28;20450;-63
2022/05/11 08:04:13;;;;;;;4.88;2.40;;;;;;;;;;5086796;28;20032;-63
2022/05/11 08:06:39;;;;;;;5.50;2.05;;;;;;;;;;5100919;28;20264;-63
2022/05/11 08:09:05;;;;;;;3.40;2.00;;;;;;;;;;5094838;28;20095;-63
2022/05/11 08:11:31;;;;;;;4.15;2.03;;;;;;;;;;5088338;28;20016;-63
2022/05/11 08:13:57;;;;;;;5.55;2.25;;;;;;;;;;5089546;28;20127;-63
2022/05/11 08:16:25;;;;;;;4.68;2.10;;;;;;;;;;5082441;28;20075;-63
2022/05/11 08:18:52;;;;;;;7.00;2.30;;;;;;;;;;5091836;28;20061;-63
2022/05/11 08:21:19;;;;;;;7.75;2.38;;;;;;;;;;5083874;28;20032;-63
2022/05/11 08:23:45;;;;;;;4.45;2.17;;;;;;;;;;5077682;28;20016;-63
2022/05/11 08:26:11;;;;;;;3.53;2.42;;;;;;;;;;5081379;28;20028;-64
2022/05/11 08:28:37;;;;;;;4.40;2.58;;;;;;;;;;5083660;28;20029;-63
2022/05/11 08:33:48;;;;;;;8.02;3.13;;;;;;;;;;5081379;28;20046;-63
2022/05/11 08:36:18;;;;;;;8.60;2.38;;;;;;;;;;5085055;28;20017;-63
2022/05/11 08:38:46;;;;;;;4.68;2.63;;;;;;;;;;5073992;28;20024;-63
2022/05/11 08:41:15;;;;;;;5.40;2.53;;;;;;;;;;5077950;28;20458;-63
2022/05/11 08:43:42;;;;;;;5.68;2.17;;;;;;;;;;5084521;28;20031;-63
2022/05/11 08:46:16;;;;;;;5.10;2.63;;;;;;;;;;5086682;28;20046;-63
2022/05/11 08:48:47;;;;;;;6.97;2.72;;;;;;;;;;5083217;28;20040;-63
2022/05/11 08:51:20;;;;;;;6.05;2.50;;;;;;;;;;5092707;28;20012;-63
2022/05/11 08:53:48;;;;;;;5.97;2.63;;;;;;;;;;5082321;28;20028;-63
2022/05/11 08:56:19;;;;;;;6.50;2.40;;;;;;;;;;5081938;28;20023;-63
2022/05/11 08:58:48;;;;;;;7.25;2.53;;;;;;;;;;5087027;28;20555;-63
2022/05/11 09:01:34;;;;;;;5.82;2.42;;;;;;;;;;5076350;28;20031;-63
2022/05/11 09:04:00;;;;;;;4.18;2.40;;;;;;;;;;5084162;28;20038;-63
2022/05/11 09:06:27;;;;;;;6.57;2.75;;;;;;;;;;5087080;28;20483;-63
2022/05/11 09:08:54;;;;;;;7.97;3.28;;;;;;;;;;5084693;28;20088;-63
2022/05/11 09:11:28;;;;;;;5.82;2.72;;;;;;;;;;5081558;28;20379;-64
2022/05/11 09:13:56;;;;;;;6.85;3.13;;;;;;;;;;5077065;28;20027;-63
2022/05/11 09:16:27;;;;;;;5.85;2.45;;;;;;;;;;5079359;28;20553;-64
2022/05/11 09:18:53;;;;;;;10.20;2.80;;;;;;;;;;5079084;28;20067;-63
2022/05/11 09:21:22;;;;;;;5.97;2.70;;;;;;;;;;5081620;28;20635;-64
2022/05/11 09:24:02;;;;;;;6.22;2.63;;;;;;;;;;5087150;28;20017;-64
2022/05/11 09:26:32;;;;;;;8.10;3.00;;;;;;;;;;5081047;28;20063;-63
2022/05/11 09:29:12;;;;;;;9.45;3.47;;;;;;;;;;5074542;28;20345;-64
2022/05/11 09:31:39;;;;;;;5.10;2.60;;;;;;;;;;5081395;28;20016;-64
2022/05/11 09:34:05;;;;;;;6.13;2.80;;;;;;;;;;5083416;28;20047;-64
2022/05/11 09:36:36;;;;;;;7.93;2.67;;;;;;;;;;5086376;28;20028;-64
2022/05/11 09:39:12;;;;;;;4.40;2.38;;;;;;;;;;5079268;28;20499;-64
2022/05/11 09:41:40;;;;;;;4.57;2.60;;;;;;;;;;5085654;28;20070;-64
2022/05/11 09:44:18;;;;;;;5.75;2.67;;;;;;;;;;5083157;28;20047;-64
2022/05/11 09:46:44;;;;;;;6.03;2.55;;;;;;;;;;5078906;28;20024;-64
2022/05/11 09:49:16;;;;;;;5.22;2.50;;;;;;;;;;5077434;28;20360;-64
2022/05/11 09:51:53;;;;;;;7.15;2.60;;;;;;;;;;5080338;28;20414;-64
2022/05/11 09:54:19;;;;;;;4.72;2.20;;;;;;;;;;5078953;28;20024;-64
2022/05/11 09:56:46;;;;;;;7.60;2.42;;;;;;;;;;5079690;28;20032;-65
2022/05/11 09:59:27;;;;;;;6.68;2.85;;;;;;;;;;5072616;28;20020;-64
2022/05/11 10:02:14;;;;;;;4.22;2.47;;;;;;;;;;5074343;28;20550;-64
2022/05/11 10:04:42;;;;;;;6.65;2.50;;;;;;;;;;5076075;28;20537;-64
2022/05/11 10:07:10;;;;;;;5.70;2.60;;;;;;;;;;5076372;28;20032;-60
2022/05/11 10:09:40;;;;;;;7.60;2.85;;;;;;;;;;5085099;28;20023;-61
2022/05/11 10:12:08;;;;;;;6.32;2.85;;;;;;;;;;5066019;28;20025;-60
2022/05/11 10:23:11;;;;;;;4.78;2.67;;;;;;;;;;5080577;28;20743;-60
2022/05/11 10:25:41;;;;;;;8.80;2.50;;;;;;;;;;5077943;28;20110;-61
2022/05/11 10:28:23;;;;;;;9.98;2.50;;;;;;;;;;5088753;28;20686;-60
2022/05/11 10:30:49;;;;;;;4.88;2.38;;;;;;;;;;5084972;28;20024;-60
2022/05/11 10:33:44;;;;;;;4.13;2.33;;;;;;;;;;5080386;28;20015;-60
2022/05/11 10:36:13;;;;;;;7.30;2.40;;;;;;;;;;5062729;28;20041;-61
2022/05/11 10:38:39;;;;;;;9.43;2.60;;;;;;;;;;5081224;28;20019;-61
2022/05/11 10:41:12;;;;;;;7.32;2.53;;;;;;;;;;5082695;28;20396;-61
2022/05/11 10:43:56;;;;;;;5.47;2.80;;;;;;;;;;5083564;28;20024;-61
2022/05/11 10:46:34;;;;;;;5.22;2.70;;;;;;;;;;5091001;28;20031;-60
2022/05/11 10:49:23;;;;;;;5.97;2.47;;;;;;;;;;5088817;28;20043;-60
2022/05/11 10:51:49;;;;;;;4.82;2.60;;;;;;;;;;5091257;28;20031;-60
2022/05/11 10:54:33;;;;;;;5.38;2.50;;;;;;;;;;5083937;28;20024;-61
2022/05/11 10:57:25;;;;;;;6.30;2.85;;;;;;;;;;5092403;28;20033;-61
2022/05/11 10:59:51;;;;;;;5.13;2.65;;;;;;;;;;5082927;28;20039;-61
2022/05/11 11:02:35;;;;;;;5.65;2.90;;;;;;;;;;5089999;28;20020;-61
2022/05/11 11:05:14;;;;;;;10.18;3.17;;;;;;;;;;5092192;28;20100;-61
2022/05/11 11:07:51;;;;;;;4.45;2.63;;;;;;;;;;5081243;28;20082;-60
2022/05/11 11:10:26;;;;;;;6.72;3.20;;;;;;;;;;5089887;28;20039;-61
2022/05/11 11:13:11;;;;;;;7.13;2.55;;;;;;;;;;5079584;28;20109;-61
2022/05/11 11:15:38;;;;;;;8.75;2.88;;;;;;;;;;5077292;28;20020;-61
2022/05/11 11:18:05;;;;;;;9.00;2.80;;;;;;;;;;5089727;28;20051;-61
2022/05/11 11:20:34;;;;;;;3.47;2.05;;;;;;;;;;5091000;28;20024;-61
2022/05/11 11:23:09;;;;;;;8.02;2.30;;;;;;;;;;5092660;28;20502;-61
2022/05/11 11:25:54;;;;;;;10.82;2.42;;;;;;;;;;5091653;28;20040;-61
2022/05/11 11:28:27;;;;;;;5.97;2.42;;;;;;;;;;5087763;28;20024;-60
2022/05/11 11:30:53;;;;;;;;;;;;;;;;;;5086557;28;20547;-61
2022/05/11 11:33:23;;;;;;;3.92;2.20;;;;;;;;;;5086510;28;19991;-61
2022/05/11 11:35:59;;;;;;;11.63;2.60;;;;;;;;;;5080129;28;20013;-60
2022/05/11 11:38:41;;;;;;;5.25;2.10;;;;;;;;;;5088743;28;20036;-60
2022/05/11 11:41:07;;;;;;;6.88;2.47;;;;;;;;;;5082218;28;20039;-61
2022/05/11 11:43:51;;;;;;;5.85;2.13;;;;;;;;;;5077670;28;20033;-61
2022/05/11 11:46:29;;;;;;;5.25;1.67;;;;;;;;;;5079976;28;20039;-61
2022/05/11 11:49:14;;;;;;;6.18;2.10;;;;;;;;;;5078429;28;20147;-61
2022/05/11 11:51:56;;;;;;;3.67;2.10;;;;;;;;;;5086811;28;20023;-61
2022/05/11 11:54:48;;;;;;;9.70;2.45;;;;;;;;;;5083621;28;20036;-61
2022/05/11 11:57:23;;;;;;;14.13;2.40;;;;;;;;;;5070853;28;20156;-61
2022/05/11 11:59:51;;;;;;;7.05;2.15;;;;;;;;;;5068100;28;20067;-61
2022/05/11 12:02:17;;;;;;;8.68;2.30;;;;;;;;;;5082011;28;20032;-60
2022/05/11 12:04:58;;;;;;;6.47;1.95;;;;;;;;;;5081910;28;20028;-61
2022/05/11 12:16:08;;;;;;;8.63;2.20;;;;;;;;;;5072355;28;20105;-61
2022/05/11 12:18:38;;;;;;;5.72;2.15;;;;;;;;;;5084285;28;20539;-61
2022/05/11 12:21:07;;;;;;;5.78;1.88;;;;;;;;;;5078570;28;20413;-61
2022/05/11 12:23:36;;;;;;;6.47;2.53;;;;;;;;;;5076636;28;20048;-60
2022/05/11 12:26:06;;;;;;;3.95;2.00;;;;;;;;;;5077376;28;20110;-61
2022/05/11 12:28:37;;;;;;;6.78;2.00;;;;;;;;;;5081459;28;20032;-60
2022/05/11 12:31:03;;;;;;;9.52;2.03;;;;;;;;;;5082480;28;20035;-61
2022/05/11 12:33:32;;;;;;;4.95;1.80;;;;;;;;;;5073736;28;28187;-60
2022/05/11 12:35:59;;;;;;;5.18;2.00;;;;;;;;;;5086590;28;20027;-61
2022/05/11 12:38:27;;;;;;;6.80;2.60;;;;;;;;;;5090202;27;20020;-61
2022/05/11 12:40:53;;;;;;;8.07;2.15;;;;;;;;;;5084374;28;20031;-60
2022/05/11 12:43:25;;;;;;;3.55;2.10;;;;;;;;;;5083964;28;20104;-59
2022/05/11 12:45:51;;;;;;;5.40;2.33;;;;;;;;;;5085187;28;20027;-60
2022/05/11 12:48:19;;;;;;;4.05;2.13;;;;;;;;;;5084588;28;20020;-61
2022/05/11 12:51:05;;;;;;;6.45;2.38;;;;;;;;;;5077375;28;20023;-61
2022/05/11 12:53:33;;;;;;;8.52;2.17;;;;;;;;;;5079060;28;20017;-61
2022/05/11 12:56:07;;;;;;;8.50;2.00;;;;;;;;;;5095168;28;20491;-60
2022/05/11 12:58:35;;;;;;;6.50;2.35;;;;;;;;;;5076719;27;20500;-60
2022/05/11 13:01:03;;;;;;;10.77;2.40;;;;;;;;;;5080441;28;20031;-61
2022/05/11 13:03:34;;;;;;;7.20;2.35;;;;;;;;;;5078234;28;20024;-60
2022/05/11 13:06:02;;;;;;;8.55;2.38;;;;;;;;;;5082206;28;20032;-61
2022/05/11 13:08:31;;;;;;;5.55;2.42;;;;;;;;;;5078502;28;20097;-60
2022/05/11 13:10:57;;;;;;;8.52;2.00;;;;;;;;;;5085060;28;20064;-61
2022/05/11 13:13:31;;;;;;;4.38;2.40;;;;;;;;;;5079691;28;20463;-60
2022/05/11 13:15:57;;;;;;;;;;;;;;;;;;5081609;28;20380;-60
2022/05/11 13:18:28;;;;;;;5.18;2.25;;;;;;;;;;5080853;28;19904;-59
2022/05/11 13:20:55;;;;;;;9.77;2.30;;;;;;;;;;5071602;28;20702;-61
2022/05/11 13:23:28;;;;;;;6.47;2.22;;;;;;;;;;5078379;28;20023;-61
2022/05/11 13:25:54;;;;;;;;;;;;;;;;;;5078680;28;20083;-61
2022/05/11 13:28:22;;;;;;;5.60;2.13;;;;;;;;;;5077283;28;20420;-60
2022/05/11 13:30:49;;;;;;;6.05;2.65;;;;;;;;;;5072244;28;20395;-60
2022/05/11 13:33:33;;;;;;;5.60;2.08;;;;;;;;;;5075507;28;20051;-60
2022/05/11 13:36:12;;;;;;;4.60;2.30;;;;;;;;;;5081496;28;20029;-61
2022/05/11 13:38:38;;;;;;;5.78;1.90;;;;;;;;;;5089464;28;20050;-61
2022/05/11 13:41:07;;;;;;;4.80;2.15;;;;;;;;;;5087661;28;20539;-61
2022/05/11 13:43:35;;;;;;;6.57;2.20;;;;;;;;;;5076074;28;20685;-60
2022/05/11 13:46:09;;;;;;;3.83;2.00;;;;;;;;;;5090129;28;20031;-60
2022/05/11 13:48:35;;;;;;;5.18;1.98;;;;;;;;;;5079091;28;20031;-61
2022/05/11 13:51:21;;;;;;;8.13;2.10;;;;;;;;;;5074459;28;20102;-61
2022/05/11 13:53:49;;;;;;;6.15;2.00;;;;;;;;;;5080224;28;20024;-60
2022/05/11 13:56:14;;;;;;;4.40;1.58;;;;;;;;;;5075524;28;20051;-60
2022/05/11 13:58:41;;;;;;;6.72;1.83;;;;;;;;;;5076280;28;20055;-61
2022/05/11 14:01:06;;;;;;;5.65;1.85;;;;;;;;;;5079829;28;20028;-61
2022/05/11 14:03:38;;;;;;;10.10;2.00;;;;;;;;;;5086645;27;20116;-60
2022/05/11 14:06:04;;;;;;;5.50;1.85;;;;;;;;;;5082958;28;20510;-61
2022/05/11 14:08:31;;;;;;;4.63;1.40;;;;;;;;;;5086559;28;20030;-60
2022/05/11 14:10:57;;;;;;;6.13;1.80;;;;;;;;;;5083742;27;20369;-60
2022/05/11 14:13:22;;;;;;;6.60;1.90;;;;;;;;;;5078569;28;20032;-60
2022/05/11 14:15:49;;;;;;;6.25;1.60;;;;;;;;;;5080355;28;20081;-61
2022/05/11 14:18:19;;;;;;;4.28;1.65;;;;;;;;;;5083828;28;20115;-61
2022/05/11 14:20:45;;;;;;;5.18;1.73;;;;;;;;;;5086548;28;20029;-61
2022/05/11 14:23:11;;;;;;;4.85;1.52;;;;;;;;;;5080894;28;20032;-61
2022/05/11 14:25:37;;;;;;;4.13;1.77;;;;;;;;;;5073447;28;20508;-61
2022/05/11 14:28:03;;;;;;;4.30;1.50;;;;;;;;;;5082118;28;20046;-61
2022/05/11 14:30:30;;;;;;;3.83;1.40;;;;;;;;;;5084067;28;20044;-61
2022/05/11 14:32:56;;;;;;;6.40;1.48;;;;;;;;;;5078703;28;20638;-61
2022/05/11 14:35:25;;;;;;;3.60;1.33;;;;;;;;;;5075892;28;20021;-61
2022/05/11 14:37:51;;;;;;;7.07;1.70;;;;;;;;;;5072754;28;20028;-60
2022/05/11 14:40:19;;;;;;;8.00;1.60;;;;;;;;;;5075029;28;20036;-61
2022/05/11 14:42:45;;;;;;;6.18;1.83;;;;;;;;;;5083601;28;20479;-61
2022/05/11 14:45:12;;;;;;;5.38;1.40;;;;;;;;;;5087247;28;20073;-60
2022/05/11 14:47:41;;;;;;;5.10;1.50;;;;;;;;;;5087591;28;20107;-61
2022/05/11 14:50:08;;;;;;;4.97;1.45;;;;;;;;;;5079233;28;20024;-60
2022/05/11 14:52:34;;;;;;;3.85;1.42;;;;;;;;;;5080105;28;20486;-60
2022/05/11 14:55:02;;;;;;;4.53;1.67;;;;;;;;;;5078302;28;20031;-61
2022/05/11 15:02:59;;;;;;;6.18;1.33;;;;;;;;;;5084292;28;20411;-61
2022/05/11 15:05:24;;;;;;;7.25;1.70;;;;;;;;;;5079726;28;20012;-60
2022/05/11 15:07:50;;;;;;;4.20;1.60;;;;;;;;;;5091149;28;20039;-60
2022/05/11 15:10:17;;;;;;;7.85;1.70;;;;;;;;;;5081822;28;20016;-61
2022/05/11 15:15:27;;;;;;;5.72;1.50;;;;;;;;;;5080806;28;20073;-60
2022/05/11 15:17:54;;;;;;;6.05;1.30;;;;;;;;;;5073745;28;20854;-60
2022/05/11 15:20:21;;;;;;;6.72;1.60;;;;;;;;;;5080305;28;20028;-60
2022/05/11 15:22:47;;;;;;;4.57;1.55;;;;;;;;;;5078731;28;20033;-61
2022/05/11 15:25:15;;;;;;;8.48;1.30;;;;;;;;;;5089460;28;20157;-61
2022/05/11 15:27:42;;;;;;;13.20;1.63;;;;;;;;;;5077105;28;20020;-61
2022/05/11 15:30:08;;;;;;;9.88;1.70;;;;;;;;;;5086738;28;20029;-60
2022/05/11 15:32:34;;;;;;;5.60;1.60;;;;;;;;;;5083297;28;20036;-61
2022/05/11 15:35:00;;;;;;;6.63;1.73;;;;;;;;;;5088292;28;20031;-61
2022/05/11 15:37:26;;;;;;;6.93;1.60;;;;;;;;;;5075747;28;20024;-61
2022/05/11 15:39:53;;;;;;;8.35;1.65;;;;;;;;;;5090120;28;20497;-61
2022/05/11 15:42:23;;;;;;;5.60;1.58;;;;;;;;;;5084165;28;20145;-60
2022/05/11 15:44:50;;;;;;;4.10;1.35;;;;;;;;;;5074193;27;20387;-61